Time;durP1;ratioP1;P1;durP2;ratioP2;P2;SDS_P1;SDS_P2;PMS_P1;PMS_P2;Temp;Humidity;BMP_temperature;BMP_pressure;BME280_temperature;BME280_humidity;BME280_pressure;Samples;Min_cycle;Max_cycle;Signal;HPM_P1;HPM_P2
2023/09/17 00:00:28;;;;;;;22.00;19.80;;;15.30;99.90;;;;;;5005003;28;20236;-61
2023/09/17 00:02:55;;;;;;;22.05;19.70;;;15.30;99.90;;;;;;5004177;28;20038;-61
2023/09/17 00:05:21;;;;;;;21.17;19.02;;;15.30;99.90;;;;;;5004155;28;20077;-62
2023/09/17 00:07:47;;;;;;;21.10;19.00;;;15.30;99.90;;;;;;5004709;28;20129;-61
2023/09/17 00:10:12;;;;;;;22.02;19.83;;;15.30;99.90;;;;;;5004604;28;20444;-61
2023/09/17 00:12:38;;;;;;;22.25;19.95;;;15.40;99.90;;;;;;5004822;28;20058;-62
2023/09/17 00:15:05;;;;;;;23.25;20.95;;;15.40;99.90;;;;;;5004415;28;20038;-61
2023/09/17 00:17:31;;;;;;;22.27;20.08;;;15.40;99.90;;;;;;5004756;28;20053;-61
2023/09/17 00:19:57;;;;;;;22.48;20.27;;;15.40;99.90;;;;;;5003388;28;20038;-62
2023/09/17 00:22:22;;;;;;;22.52;20.33;;;15.40;99.90;;;;;;5005055;28;20046;-62
2023/09/17 00:24:48;;;;;;;23.38;20.73;;;15.40;99.90;;;;;;5004062;28;20471;-62
2023/09/17 00:27:14;;;;;;;22.58;20.42;;;15.40;99.90;;;;;;5004500;28;20572;-63
2023/09/17 00:29:40;;;;;;;21.70;19.05;;;15.40;99.90;;;;;;5002852;28;20128;-62
2023/09/17 00:32:06;;;;;;;23.13;20.75;;;15.40;99.90;;;;;;4996262;28;20141;-62
2023/09/17 00:34:31;;;;;;;23.02;20.73;;;15.50;99.90;;;;;;4984189;28;20133;-62
2023/09/17 00:36:57;;;;;;;21.48;19.27;;;15.30;99.90;;;;;;4984193;28;20042;-61
2023/09/17 00:39:23;;;;;;;21.05;19.05;;;15.40;99.90;;;;;;4984756;28;21014;-61
2023/09/17 00:41:48;;;;;;;23.02;20.70;;;15.40;99.90;;;;;;4983679;28;20068;-61
2023/09/17 00:44:15;;;;;;;22.75;20.42;;;15.40;99.90;;;;;;4984366;28;20045;-62
2023/09/17 00:46:41;;;;;;;23.77;21.48;;;15.40;99.90;;;;;;4984591;28;20066;-61
2023/09/17 00:49:13;;;;;;;23.25;21.02;;;15.40;99.90;;;;;;4985037;28;20130;-60
2023/09/17 00:51:42;;;;;;;23.95;21.45;;;15.50;99.90;;;;;;4988946;28;20038;-62
2023/09/17 00:54:10;;;;;;;23.00;20.80;;;15.40;99.90;;;;;;5003691;28;20399;-62
2023/09/17 00:56:37;;;;;;;23.13;20.83;;;15.40;99.90;;;;;;5004298;28;20053;-61
2023/09/17 00:59:04;;;;;;;23.30;21.10;;;15.50;99.90;;;;;;5003570;28;20042;-62
2023/09/17 01:01:30;;;;;;;22.65;20.45;;;15.40;99.90;;;;;;5003079;28;20433;-62
2023/09/17 01:03:56;;;;;;;22.73;20.50;;;15.40;99.90;;;;;;5003605;28;20113;-62
2023/09/17 01:06:22;;;;;;;23.60;21.23;;;15.40;99.90;;;;;;5059306;23;20405;-57
2023/09/17 01:08:48;;;;;;;23.33;21.13;;;15.40;99.90;;;;;;4997622;28;20507;-58
2023/09/17 01:11:14;;;;;;;23.65;21.25;;;15.30;99.90;;;;;;5003116;28;20045;-58
2023/09/17 01:13:42;;;;;;;24.50;22.05;;;15.30;99.90;;;;;;4981556;28;20046;-56
2023/09/17 01:16:09;;;;;;;26.05;22.73;;;15.30;99.90;;;;;;5003881;28;20042;-58
2023/09/17 01:18:35;;;;;;;24.00;21.70;;;15.30;99.90;;;;;;5002594;28;20173;-59
2023/09/17 01:21:15;;;;;;;25.33;22.85;;;15.30;99.90;;;;;;4998143;28;20126;-58
2023/09/17 01:23:51;;;;;;;25.48;22.92;;;15.30;99.90;;;;;;4992813;28;20134;-58
2023/09/17 01:26:27;;;;;;;23.17;20.92;;;15.40;99.90;;;;;;4983402;28;20046;-57
2023/09/17 01:28:56;;;;;;;25.77;23.17;;;15.30;99.90;;;;;;4983532;28;20046;-59
2023/09/17 01:31:25;;;;;;;24.50;22.17;;;15.40;99.90;;;;;;4992805;28;20065;-58
2023/09/17 01:33:51;;;;;;;28.15;22.17;;;15.30;99.90;;;;;;4968009;28;20148;-57
2023/09/17 01:36:34;;;;;;;25.00;22.35;;;15.30;99.90;;;;;;4981777;28;20388;-58
2023/09/17 01:39:06;;;;;;;23.73;21.50;;;15.30;99.90;;;;;;4982633;28;20053;-58
2023/09/17 01:41:35;;;;;;;23.60;21.17;;;15.40;99.90;;;;;;4983269;28;20141;-58
2023/09/17 01:44:03;;;;;;;23.38;21.05;;;15.30;99.90;;;;;;4966568;28;20050;-58
2023/09/17 01:46:31;;;;;;;23.70;21.38;;;15.30;99.90;;;;;;4983349;28;20077;-58
2023/09/17 01:48:57;;;;;;;24.17;21.55;;;15.40;99.90;;;;;;4966093;28;20440;-59
2023/09/17 01:51:23;;;;;;;22.95;20.83;;;15.30;99.90;;;;;;4981626;28;20038;-58
2023/09/17 01:53:50;;;;;;;24.75;22.33;;;15.20;99.90;;;;;;4981828;28;20038;-59
2023/09/17 01:56:17;;;;;;;26.75;24.08;;;15.10;99.90;;;;;;4982823;28;20093;-59
2023/09/17 01:58:43;;;;;;;25.52;22.02;;;15.10;99.90;;;;;;4983237;28;20039;-58
2023/09/17 02:01:09;;;;;;;23.17;20.85;;;15.10;99.90;;;;;;4983056;28;20053;-58
2023/09/17 02:03:34;;;;;;;23.63;21.23;;;15.00;99.90;;;;;;4981901;28;20629;-59
2023/09/17 02:06:04;;;;;;;24.20;21.90;;;15.20;99.90;;;;;;4981723;28;20046;-58
2023/09/17 02:08:30;;;;;;;24.67;22.08;;;15.10;99.90;;;;;;4983662;28;20054;-59
2023/09/17 02:10:56;;;;;;;25.40;22.83;;;15.10;99.90;;;;;;4982397;28;20065;-58
2023/09/17 02:13:21;;;;;;;26.67;23.98;;;15.10;99.90;;;;;;4966149;28;20118;-60
2023/09/17 02:15:47;;;;;;;24.77;22.27;;;15.10;99.90;;;;;;4983303;28;20464;-58
2023/09/17 02:18:12;;;;;;;23.83;21.42;;;15.10;99.90;;;;;;4983108;28;20057;-57
2023/09/17 02:20:39;;;;;;;24.63;22.00;;;15.10;99.90;;;;;;4948625;28;20054;-57
2023/09/17 02:23:04;;;;;;;24.45;21.90;;;15.10;99.90;;;;;;4983009;28;20050;-57
2023/09/17 02:25:30;;;;;;;25.23;22.63;;;15.10;99.90;;;;;;4965007;28;20042;-58
2023/09/17 02:27:56;;;;;;;24.67;22.25;;;15.10;99.90;;;;;;4982380;28;20057;-58
2023/09/17 02:30:22;;;;;;;26.60;23.95;;;15.10;99.90;;;;;;4984547;28;20051;-58
2023/09/17 02:32:48;;;;;;;24.85;22.17;;;15.10;99.90;;;;;;4991611;28;20401;-58
2023/09/17 02:35:13;;;;;;;25.52;22.95;;;15.10;99.90;;;;;;4982351;28;20049;-57
2023/09/17 02:37:39;;;;;;;24.67;22.15;;;15.10;99.90;;;;;;4982188;28;20053;-58
2023/09/17 02:40:08;;;;;;;24.63;22.13;;;15.20;99.90;;;;;;4982346;28;20073;-56
2023/09/17 02:42:35;;;;;;;25.92;23.35;;;15.10;99.90;;;;;;4982580;28;20046;-57
2023/09/17 02:45:04;;;;;;;27.10;23.38;;;15.10;99.90;;;;;;4982455;28;20109;-57
2023/09/17 02:47:34;;;;;;;25.63;23.05;;;15.10;99.90;;;;;;4983643;28;20054;-58
2023/09/17 02:50:00;;;;;;;28.90;25.92;;;15.20;99.90;;;;;;4968174;28;20061;-58
2023/09/17 02:52:26;;;;;;;29.40;26.30;;;15.20;99.90;;;;;;4986418;28;20397;-58
2023/09/17 02:54:55;;;;;;;33.38;29.90;;;15.30;99.90;;;;;;4986017;28;20054;-58
2023/09/17 02:57:21;;;;;;;33.88;30.27;;;15.30;99.90;;;;;;4986645;28;20179;-58
2023/09/17 02:59:47;;;;;;;34.05;30.08;;;15.20;99.90;;;;;;4969576;28;20089;-58
2023/09/17 03:02:12;;;;;;;30.40;27.45;;;15.30;99.90;;;;;;4985475;28;20046;-58
2023/09/17 03:04:38;;;;;;;32.33;29.00;;;15.30;99.90;;;;;;4968372;28;20628;-57
2023/09/17 03:07:04;;;;;;;31.10;27.92;;;15.40;99.90;;;;;;4986491;28;20066;-57
2023/09/17 03:09:30;;;;;;;32.70;29.30;;;15.40;99.90;;;;;;4985591;28;20053;-57
2023/09/17 03:11:56;;;;;;;36.05;30.63;;;15.50;99.90;;;;;;4985308;28;20393;-57
2023/09/17 03:14:22;;;;;;;33.42;30.13;;;15.50;99.90;;;;;;4984848;28;20057;-57
2023/09/17 03:16:48;;;;;;;31.63;28.40;;;15.60;99.90;;;;;;4986690;28;20049;-58
2023/09/17 03:19:14;;;;;;;31.35;28.35;;;15.60;99.90;;;;;;4984655;28;20050;-57
2023/09/17 03:21:42;;;;;;;33.22;29.92;;;15.60;99.90;;;;;;4984970;28;20057;-58
2023/09/17 03:24:09;;;;;;;33.03;29.67;;;15.70;99.90;;;;;;4986325;28;20488;-58
2023/09/17 03:26:36;;;;;;;33.03;29.85;;;15.80;99.90;;;;;;4986331;28;20604;-58
2023/09/17 03:29:03;;;;;;;38.90;35.17;;;15.70;99.90;;;;;;4968005;28;20050;-57
2023/09/17 03:31:28;;;;;;;42.67;38.17;;;15.70;99.90;;;;;;4996021;28;20038;-57
2023/09/17 03:33:55;;;;;;;44.67;39.97;;;15.80;99.90;;;;;;4969060;28;20050;-57
2023/09/17 03:36:20;;;;;;;41.92;37.47;;;15.80;99.90;;;;;;4985144;28;20046;-60
2023/09/17 03:38:46;;;;;;;41.70;37.50;;;15.90;99.90;;;;;;4985542;28;20519;-57
2023/09/17 03:41:12;;;;;;;41.80;37.30;;;15.80;99.90;;;;;;4968414;28;20046;-58
2023/09/17 03:43:37;;;;;;;41.17;36.95;;;16.10;99.90;;;;;;4985133;28;20046;-58
2023/09/17 03:46:06;;;;;;;42.08;37.53;;;15.90;99.90;;;;;;4984212;28;20122;-59
2023/09/17 03:48:32;;;;;;;43.40;38.63;;;15.90;99.90;;;;;;4967619;28;20038;-58
2023/09/17 03:50:59;;;;;;;40.50;36.35;;;16.00;99.90;;;;;;4985149;28;20050;-59
2023/09/17 03:53:25;;;;;;;45.50;40.35;;;16.00;99.90;;;;;;4984225;28;20057;-57
2023/09/17 03:55:52;;;;;;;45.35;40.67;;;16.00;99.90;;;;;;4984703;28;20397;-58
2023/09/17 03:58:17;;;;;;;45.63;40.88;;;16.00;99.90;;;;;;4984670;28;20034;-59
2023/09/17 04:00:44;;;;;;;44.53;39.78;;;16.00;99.90;;;;;;4982419;28;20064;-58
2023/09/17 04:03:09;;;;;;;44.13;39.70;;;15.90;99.90;;;;;;4983471;28;20121;-58
2023/09/17 04:05:36;;;;;;;42.72;38.13;;;16.00;99.90;;;;;;4984850;28;20145;-57
2023/09/17 04:08:03;;;;;;;40.92;36.72;;;16.00;99.90;;;;;;4985804;28;20109;-57
2023/09/17 04:10:28;;;;;;;41.22;36.78;;;16.00;99.90;;;;;;4984601;28;20065;-57
2023/09/17 04:12:54;;;;;;;43.30;38.92;;;16.10;99.90;;;;;;4984510;28;20034;-58
2023/09/17 04:15:20;;;;;;;41.58;37.35;;;16.00;99.90;;;;;;4968496;28;20042;-58
2023/09/17 04:17:52;;;;;;;40.58;36.38;;;16.00;99.90;;;;;;4985731;28;20046;-58
2023/09/17 04:20:19;;;;;;;40.40;36.10;;;16.00;99.90;;;;;;4983670;28;20108;-57
2023/09/17 04:22:49;;;;;;;41.10;36.63;;;16.00;99.90;;;;;;4984611;28;20428;-57
2023/09/17 04:25:16;;;;;;;41.17;36.90;;;16.00;99.90;;;;;;4984701;28;20097;-58
2023/09/17 04:27:43;;;;;;;40.80;36.55;;;16.10;99.90;;;;;;4984174;28;20063;-57
2023/09/17 04:30:10;;;;;;;41.15;36.28;;;16.10;99.90;;;;;;4987061;28;20042;-58
2023/09/17 04:32:37;;;;;;;44.08;37.10;;;16.10;99.90;;;;;;4975657;28;20059;-58
2023/09/17 04:35:17;;;;;;;43.08;38.47;;;16.00;99.90;;;;;;4966043;28;20141;-58
2023/09/17 04:37:44;;;;;;;44.25;37.85;;;16.00;99.90;;;;;;4984350;28;20081;-57
2023/09/17 04:40:12;;;;;;;43.72;37.55;;;16.00;99.90;;;;;;4984190;28;20066;-58
2023/09/17 04:42:40;;;;;;;43.63;38.83;;;15.90;99.90;;;;;;4983743;28;20046;-57
2023/09/17 04:45:08;;;;;;;42.55;37.97;;;15.90;99.90;;;;;;4984698;28;20030;-59
2023/09/17 04:47:35;;;;;;;42.85;38.40;;;15.90;99.90;;;;;;4984274;28;20052;-58
2023/09/17 04:50:02;;;;;;;46.80;39.65;;;15.90;99.90;;;;;;4983465;28;20046;-58
2023/09/17 04:52:27;;;;;;;42.85;38.20;;;15.90;99.90;;;;;;4967716;28;20081;-59
2023/09/17 04:54:53;;;;;;;43.00;38.33;;;15.80;99.90;;;;;;4984670;28;20084;-58
2023/09/17 04:57:19;;;;;;;41.67;37.17;;;15.90;99.90;;;;;;4966793;28;20050;-58
2023/09/17 04:59:46;;;;;;;43.90;39.10;;;15.80;99.90;;;;;;4983819;28;20053;-57
2023/09/17 05:02:14;;;;;;;45.40;38.70;;;15.90;99.90;;;;;;4967383;28;20054;-59
2023/09/17 05:04:40;;;;;;;43.63;38.88;;;15.90;99.90;;;;;;4983332;28;20041;-58
2023/09/17 05:07:05;;;;;;;42.00;37.58;;;15.80;99.90;;;;;;4965975;28;20452;-59
2023/09/17 05:09:32;;;;;;;44.15;38.40;;;15.80;99.90;;;;;;4983661;28;20508;-57
2023/09/17 05:11:58;;;;;;;41.45;37.15;;;15.80;99.90;;;;;;4984530;28;20096;-58
2023/09/17 05:14:23;;;;;;;40.88;35.97;;;15.80;99.90;;;;;;4984062;28;20073;-58
2023/09/17 05:16:49;;;;;;;40.67;36.50;;;15.80;99.90;;;;;;4965919;28;20058;-58
2023/09/17 05:19:15;;;;;;;40.17;35.72;;;15.80;99.90;;;;;;4994048;28;20042;-58
2023/09/17 05:21:40;;;;;;;40.78;36.72;;;15.80;99.90;;;;;;5003654;28;20038;-58
2023/09/17 05:24:06;;;;;;;39.72;35.55;;;15.80;99.90;;;;;;4985805;28;20074;-58
2023/09/17 05:26:32;;;;;;;42.22;37.65;;;15.80;99.90;;;;;;4983264;28;20121;-57
2023/09/17 05:28:57;;;;;;;41.10;36.75;;;15.80;99.90;;;;;;4984058;28;20556;-58
2023/09/17 05:31:23;;;;;;;41.10;36.50;;;16.00;99.90;;;;;;4993763;28;20404;-58
2023/09/17 05:33:49;;;;;;;42.22;37.63;;;15.80;99.90;;;;;;4984186;28;20054;-58
2023/09/17 05:36:14;;;;;;;40.33;35.97;;;15.80;99.90;;;;;;4983970;28;20366;-58
2023/09/17 05:38:40;;;;;;;41.17;36.88;;;15.80;99.90;;;;;;4983139;28;20069;-58
2023/09/17 05:41:05;;;;;;;40.08;35.22;;;15.80;99.90;;;;;;4983261;28;20050;-58
2023/09/17 05:43:31;;;;;;;40.88;36.55;;;15.80;99.90;;;;;;4982346;28;20077;-58
2023/09/17 05:45:57;;;;;;;40.92;36.45;;;15.80;99.90;;;;;;4991395;28;20085;-58
2023/09/17 05:48:23;;;;;;;39.97;35.67;;;15.80;99.90;;;;;;5003234;28;20455;-58
2023/09/17 05:50:55;;;;;;;41.58;37.38;;;15.80;99.90;;;;;;5002031;28;20050;-58
2023/09/17 05:53:21;;;;;;;40.67;36.58;;;15.80;99.90;;;;;;5002460;28;20065;-58
2023/09/17 05:55:46;;;;;;;41.83;37.67;;;15.80;99.90;;;;;;4984843;28;20050;-57
2023/09/17 05:58:12;;;;;;;43.30;38.55;;;15.80;99.90;;;;;;5003318;28;20049;-58
2023/09/17 06:00:38;;;;;;;43.30;38.95;;;15.80;99.90;;;;;;5001764;28;20060;-58
2023/09/17 06:03:04;;;;;;;44.30;38.08;;;15.80;99.90;;;;;;4999767;28;20294;-58
2023/09/17 06:05:29;;;;;;;43.05;38.70;;;15.80;99.90;;;;;;4981874;28;20047;-58
2023/09/17 06:07:55;;;;;;;43.38;39.08;;;15.90;99.90;;;;;;4982509;28;20046;-59
2023/09/17 06:10:21;;;;;;;43.92;39.38;;;15.90;99.90;;;;;;4982264;28;20042;-58
2023/09/17 06:12:47;;;;;;;45.03;40.47;;;15.90;99.90;;;;;;4949360;28;20050;-58
2023/09/17 06:15:13;;;;;;;45.60;41.10;;;16.00;99.90;;;;;;4982939;28;20094;-58
2023/09/17 06:17:40;;;;;;;46.58;41.78;;;16.00;99.90;;;;;;4982074;28;20101;-57
2023/09/17 06:20:06;;;;;;;45.05;40.55;;;16.10;99.90;;;;;;4982816;28;20104;-58
2023/09/17 06:22:32;;;;;;;47.83;42.80;;;16.10;99.90;;;;;;4966470;28;20074;-57
2023/09/17 06:24:57;;;;;;;46.08;41.28;;;16.20;99.90;;;;;;4987197;28;20084;-58
2023/09/17 06:27:23;;;;;;;47.05;42.15;;;16.20;99.90;;;;;;4968846;28;20089;-58
2023/09/17 06:29:49;;;;;;;45.55;41.08;;;16.10;99.90;;;;;;4953994;28;20095;-57
2023/09/17 06:32:15;;;;;;;49.50;44.33;;;16.30;99.90;;;;;;4996890;28;20046;-58
2023/09/17 06:34:40;;;;;;;47.10;42.05;;;16.30;99.90;;;;;;4968383;28;20061;-59
2023/09/17 06:37:06;;;;;;;46.33;41.50;;;16.40;99.90;;;;;;4987080;28;20054;-57
2023/09/17 06:39:32;;;;;;;46.80;42.03;;;16.40;99.90;;;;;;4986960;28;20496;-58
2023/09/17 06:41:58;;;;;;;46.85;41.88;;;16.50;99.90;;;;;;4986842;28;20554;-57
2023/09/17 06:44:24;;;;;;;43.28;38.97;;;16.50;99.90;;;;;;4985909;28;20038;-58
2023/09/17 06:46:50;;;;;;;45.90;40.97;;;16.50;99.90;;;;;;4969087;28;20499;-57
2023/09/17 06:49:16;;;;;;;41.83;37.42;;;16.60;99.90;;;;;;4985785;28;20050;-58
2023/09/17 06:51:41;;;;;;;42.70;38.50;;;16.60;99.90;;;;;;4986199;28;20045;-57
2023/09/17 06:54:07;;;;;;;41.05;36.80;;;16.60;99.90;;;;;;4968037;28;20300;-58
2023/09/17 06:56:33;;;;;;;40.92;36.55;;;16.70;99.90;;;;;;4986308;28;20532;-59
2023/09/17 06:58:58;;;;;;;39.50;35.40;;;16.70;99.90;;;;;;4986233;28;20686;-59
2023/09/17 07:01:24;;;;;;;39.10;35.40;;;16.80;99.90;;;;;;4985609;28;20704;-59
2023/09/17 07:03:49;;;;;;;38.45;34.58;;;16.80;99.90;;;;;;5000500;28;20223;-58
2023/09/17 07:06:16;;;;;;;40.67;36.30;;;16.90;99.90;;;;;;5005837;28;20061;-59
2023/09/17 07:08:41;;;;;;;38.88;35.08;;;16.90;99.90;;;;;;4998919;28;20073;-59
2023/09/17 07:11:07;;;;;;;37.67;33.95;;;16.90;99.90;;;;;;4981430;28;20671;-58
2023/09/17 07:13:33;;;;;;;36.22;32.55;;;16.80;99.90;;;;;;4994955;28;20065;-58
2023/09/17 07:15:59;;;;;;;35.15;31.50;;;16.90;99.90;;;;;;4991773;28;20145;-58
2023/09/17 07:18:26;;;;;;;37.40;33.60;;;16.90;99.90;;;;;;4985643;28;20129;-58
2023/09/17 07:20:52;;;;;;;37.53;33.83;;;17.00;99.90;;;;;;4974192;28;20053;-58
2023/09/17 07:23:17;;;;;;;34.75;31.23;;;17.00;99.90;;;;;;4989755;28;20045;-58
2023/09/17 07:25:46;;;;;;;34.75;31.40;;;17.10;99.90;;;;;;5004942;28;20046;-56
2023/09/17 07:28:12;;;;;;;37.00;33.35;;;17.20;99.90;;;;;;4982646;28;20048;-59
2023/09/17 07:30:37;;;;;;;35.55;32.05;;;17.40;99.90;;;;;;4998619;28;20484;-57
2023/09/17 07:33:06;;;;;;;37.67;33.92;;;17.50;99.90;;;;;;4997536;28;20045;-58
2023/09/17 07:35:33;;;;;;;36.15;32.47;;;17.60;99.90;;;;;;4986577;28;20130;-57
2023/09/17 07:37:59;;;;;;;35.70;32.17;;;17.80;99.90;;;;;;5001155;28;20049;-58
2023/09/17 07:40:25;;;;;;;36.58;32.75;;;17.90;99.90;;;;;;5005404;28;20049;-57
2023/09/17 07:42:50;;;;;;;38.10;34.40;;;18.00;99.90;;;;;;5005548;28;20108;-59
2023/09/17 07:45:16;;;;;;;39.17;35.35;;;18.00;99.90;;;;;;4991370;28;20649;-58
2023/09/17 07:47:42;;;;;;;38.58;34.75;;;18.00;99.90;;;;;;4987928;28;20038;-58
2023/09/17 07:50:07;;;;;;;39.25;35.33;;;18.00;99.90;;;;;;4994610;28;20126;-59
2023/09/17 07:52:33;;;;;;;36.88;33.25;;;18.00;99.90;;;;;;4986837;28;20140;-60
2023/09/17 07:54:58;;;;;;;35.97;31.95;;;18.00;99.90;;;;;;4985759;28;20047;-59
2023/09/17 07:57:24;;;;;;;33.55;30.20;;;18.10;99.90;;;;;;4988477;28;20054;-59
2023/09/17 07:59:51;;;;;;;30.38;27.38;;;18.20;99.90;;;;;;5003298;28;20058;-59
2023/09/17 08:02:17;;;;;;;30.58;27.48;;;18.40;99.90;;;;;;5002002;28;20115;-60
2023/09/17 08:04:42;;;;;;;29.50;26.55;;;18.60;99.90;;;;;;5004315;28;20699;-59
2023/09/17 08:07:08;;;;;;;30.08;27.25;;;18.70;99.90;;;;;;5004902;28;20059;-57
2023/09/17 08:09:34;;;;;;;32.40;29.00;;;18.80;99.90;;;;;;4998797;28;20068;-60
2023/09/17 08:12:00;;;;;;;30.67;27.77;;;18.80;99.90;;;;;;4993120;28;20128;-57
2023/09/17 08:14:26;;;;;;;30.40;27.30;;;18.80;99.90;;;;;;4985277;28;20043;-59
2023/09/17 08:16:52;;;;;;;28.80;26.10;;;18.80;99.90;;;;;;4985591;28;20073;-59
2023/09/17 08:19:18;;;;;;;32.63;29.25;;;18.80;99.90;;;;;;4988716;28;20122;-60
2023/09/17 08:21:44;;;;;;;31.38;28.27;;;18.90;99.90;;;;;;4981275;28;20081;-61
2023/09/17 08:24:10;;;;;;;30.30;27.33;;;18.90;99.90;;;;;;4987866;28;20802;-58
2023/09/17 08:26:36;;;;;;;30.42;27.65;;;19.00;99.90;;;;;;4972734;28;20070;-60
2023/09/17 08:29:04;;;;;;;33.50;30.15;;;19.10;99.90;;;;;;4979045;28;20507;-60
2023/09/17 08:31:32;;;;;;;30.48;27.52;;;19.20;99.90;;;;;;4999352;28;20412;-59
2023/09/17 08:33:58;;;;;;;31.15;27.95;;;19.30;99.90;;;;;;4984798;28;20078;-59
2023/09/17 08:36:24;;;;;;;30.23;27.27;;;19.40;99.90;;;;;;4984936;28;20106;-59
2023/09/17 08:38:51;;;;;;;29.33;26.33;;;19.40;99.90;;;;;;4983895;28;20474;-59
2023/09/17 08:41:22;;;;;;;29.17;26.13;;;19.50;99.90;;;;;;4967769;28;20057;-60
2023/09/17 08:43:50;;;;;;;26.55;23.85;;;19.60;99.90;;;;;;4973292;28;20056;-59
2023/09/17 08:46:16;;;;;;;26.48;23.75;;;19.60;99.90;;;;;;5002960;28;20045;-59
2023/09/17 08:48:43;;;;;;;26.35;23.65;;;19.60;99.90;;;;;;5002237;28;20480;-59
2023/09/17 08:51:11;;;;;;;25.17;22.70;;;19.50;99.90;;;;;;5004102;28;20042;-58
2023/09/17 08:53:45;;;;;;;25.85;23.23;;;19.50;99.90;;;;;;4985583;28;20076;-58
2023/09/17 08:56:16;;;;;;;25.90;23.40;;;19.50;99.90;;;;;;5003695;28;20072;-59
2023/09/17 08:58:52;;;;;;;24.95;22.42;;;19.50;99.90;;;;;;5004237;28;20292;-58
2023/09/17 09:01:19;;;;;;;29.38;23.42;;;19.50;99.90;;;;;;5002787;28;20050;-60
2023/09/17 09:03:45;;;;;;;23.98;21.65;;;19.50;99.90;;;;;;5002331;28;20420;-60
2023/09/17 09:06:12;;;;;;;26.38;23.88;;;19.50;99.90;;;;;;5004322;28;20076;-59
2023/09/17 09:08:41;;;;;;;26.05;23.20;;;19.50;99.90;;;;;;4999508;28;20424;-60
2023/09/17 09:11:08;;;;;;;24.40;21.63;;;19.60;99.90;;;;;;5002478;28;20046;-60
2023/09/17 09:13:34;;;;;;;23.15;20.85;;;19.70;99.90;;;;;;5004012;28;20045;-60
2023/09/17 09:16:00;;;;;;;22.77;20.58;;;19.70;99.90;;;;;;4992785;28;20121;-60
2023/09/17 09:18:26;;;;;;;22.10;19.90;;;19.70;99.90;;;;;;4998387;28;20041;-60
2023/09/17 09:20:51;;;;;;;23.00;20.67;;;19.70;99.90;;;;;;4984400;28;20058;-60
2023/09/17 09:23:17;;;;;;;22.45;20.15;;;19.70;99.90;;;;;;4998734;28;20046;-60
2023/09/17 09:25:44;;;;;;;21.80;19.58;;;19.70;99.90;;;;;;5001050;28;20088;-60
2023/09/17 09:28:09;;;;;;;22.05;19.95;;;19.70;99.90;;;;;;5002302;28;20492;-59
2023/09/17 09:30:36;;;;;;;19.77;17.67;;;19.80;99.90;;;;;;4994196;28;20129;-59
2023/09/17 09:33:02;;;;;;;19.55;17.45;;;19.80;99.90;;;;;;4994018;28;20072;-59
2023/09/17 09:35:28;;;;;;;18.13;16.23;;;19.90;99.90;;;;;;4998209;28;20041;-59
2023/09/17 09:37:54;;;;;;;17.05;14.80;;;20.10;99.90;;;;;;4985269;28;20583;-60
2023/09/17 09:40:21;;;;;;;16.02;14.32;;;20.50;99.90;;;;;;4982044;28;20077;-59
2023/09/17 09:42:48;;;;;;;18.08;12.82;;;21.00;99.90;;;;;;4968913;28;20527;-59
2023/09/17 09:45:18;;;;;;;14.68;13.18;;;21.60;99.90;;;;;;5001200;28;20072;-59
2023/09/17 09:47:50;;;;;;;19.30;13.77;;;22.00;99.90;;;;;;4982295;28;20050;-59
2023/09/17 09:50:31;;;;;;;15.25;13.65;;;21.80;99.90;;;;;;4997652;28;20108;-59
2023/09/17 09:52:56;;;;;;;16.38;14.20;;;21.60;99.90;;;;;;4982833;28;20058;-60
2023/09/17 09:55:27;;;;;;;15.60;13.85;;;21.40;99.90;;;;;;5001362;28;20069;-60
2023/09/17 09:57:53;;;;;;;14.82;13.30;;;21.30;99.90;;;;;;4993741;28;20096;-59
2023/09/17 10:00:29;;;;;;;14.85;13.05;;;21.10;99.90;;;;;;4993030;28;20042;-59
2023/09/17 10:02:55;;;;;;;15.32;13.82;;;21.00;99.90;;;;;;4985815;28;20044;-58
2023/09/17 10:05:32;;;;;;;16.20;14.55;;;20.80;99.90;;;;;;4972985;28;20077;-59
2023/09/17 10:07:58;;;;;;;15.82;14.32;;;20.70;99.90;;;;;;4975583;28;20578;-58
2023/09/17 10:10:24;;;;;;;14.95;13.30;;;20.60;99.90;;;;;;4995382;28;20053;-57
2023/09/17 10:12:52;;;;;;;14.23;12.52;;;20.50;99.90;;;;;;4991084;28;20070;-59
2023/09/17 10:15:18;;;;;;;15.77;14.02;;;20.40;99.90;;;;;;4981737;28;20042;-58
2023/09/17 10:17:46;;;;;;;16.08;13.63;;;20.40;99.90;;;;;;4964330;28;20097;-58
2023/09/17 10:20:13;;;;;;;15.32;13.73;;;20.30;99.90;;;;;;4990526;28;20045;-58
2023/09/17 10:22:40;;;;;;;15.73;14.25;;;20.20;99.90;;;;;;5002127;28;20108;-58
2023/09/17 10:25:09;;;;;;;16.95;15.15;;;20.10;99.90;;;;;;4984674;28;20049;-59
2023/09/17 10:27:38;;;;;;;16.23;14.70;;;20.10;99.90;;;;;;5002244;28;20046;-58
2023/09/17 10:30:06;;;;;;;17.05;15.32;;;20.00;99.90;;;;;;4996586;28;20451;-57
2023/09/17 10:32:32;;;;;;;16.00;14.45;;;20.00;99.90;;;;;;4987541;28;20030;-58
2023/09/17 10:35:00;;;;;;;17.35;15.65;;;20.10;99.90;;;;;;4981596;28;20038;-58
2023/09/17 10:37:27;;;;;;;16.88;15.02;;;20.10;99.90;;;;;;4988967;28;20181;-58
2023/09/17 10:39:54;;;;;;;15.00;13.52;;;20.20;99.90;;;;;;4996408;28;20400;-58
2023/09/17 10:42:20;;;;;;;15.98;14.27;;;20.30;99.90;;;;;;5001129;28;20046;-59
2023/09/17 10:44:48;;;;;;;15.63;14.05;;;20.40;99.90;;;;;;5000248;28;20067;-59
2023/09/17 10:47:17;;;;;;;16.50;13.90;;;20.50;99.90;;;;;;5000743;28;20042;-59
2023/09/17 10:49:44;;;;;;;14.60;12.23;;;20.50;99.90;;;;;;5001329;28;20125;-58
2023/09/17 10:52:11;;;;;;;14.38;12.88;;;20.60;99.90;;;;;;5001573;28;20499;-57
2023/09/17 10:54:38;;;;;;;14.18;12.63;;;20.60;99.90;;;;;;4977189;28;20049;-59
2023/09/17 10:57:14;;;;;;;14.13;12.20;;;20.40;99.90;;;;;;5001055;28;20123;-58
2023/09/17 10:59:40;;;;;;;16.90;13.25;;;20.40;99.90;;;;;;5001020;28;20046;-60
2023/09/17 11:02:07;;;;;;;15.27;13.70;;;20.30;99.90;;;;;;5002476;28;20050;-58
2023/09/17 11:04:34;;;;;;;14.32;13.00;;;20.30;99.90;;;;;;5000776;28;20060;-58
2023/09/17 11:07:01;;;;;;;14.95;13.10;;;20.30;99.90;;;;;;4983459;28;20058;-58
2023/09/17 11:09:27;;;;;;;14.60;13.10;;;20.30;99.90;;;;;;4984955;28;20057;-58
2023/09/17 11:11:52;;;;;;;14.77;13.27;;;20.30;99.90;;;;;;4986031;28;20050;-58
2023/09/17 11:14:18;;;;;;;14.43;12.90;;;20.30;99.90;;;;;;4967576;28;20047;-60
2023/09/17 11:16:47;;;;;;;15.05;13.55;;;20.40;99.90;;;;;;4986961;28;20421;-60
2023/09/17 11:19:19;;;;;;;14.93;13.52;;;20.50;99.90;;;;;;4985058;28;20126;-59
2023/09/17 11:21:50;;;;;;;15.90;14.07;;;20.60;99.90;;;;;;4985030;28;20065;-58
2023/09/17 11:24:19;;;;;;;16.67;14.88;;;20.70;99.90;;;;;;4968333;28;20053;-58
2023/09/17 11:26:45;;;;;;;15.95;14.45;;;20.90;99.90;;;;;;4987194;28;20049;-58
2023/09/17 11:29:12;;;;;;;15.85;14.25;;;21.30;99.90;;;;;;4996821;28;20047;-59
2023/09/17 11:31:52;;;;;;;15.18;13.68;;;21.70;99.90;;;;;;4997980;28;20052;-59
2023/09/17 11:34:20;;;;;;;15.65;14.00;;;22.10;99.90;;;;;;4985610;28;20111;-59
2023/09/17 11:36:46;;;;;;;16.33;14.70;;;22.30;99.90;;;;;;4986395;28;20046;-59
2023/09/17 11:39:15;;;;;;;17.80;15.85;;;22.40;99.90;;;;;;4986506;28;20564;-59
2023/09/17 11:41:47;;;;;;;18.52;16.50;;;22.60;99.90;;;;;;4987574;28;20050;-59
2023/09/17 11:44:13;;;;;;;18.00;16.05;;;22.80;99.90;;;;;;4986421;28;20042;-59
2023/09/17 11:46:40;;;;;;;18.40;16.60;;;22.70;99.90;;;;;;4986644;28;20043;-58
2023/09/17 11:49:08;;;;;;;19.63;17.60;;;22.50;99.90;;;;;;4988415;28;20123;-59
2023/09/17 11:51:34;;;;;;;20.02;17.92;;;22.40;99.90;;;;;;4994110;28;20054;-59
2023/09/17 11:54:08;;;;;;;19.73;17.83;;;22.20;99.90;;;;;;4986182;28;20092;-58
2023/09/17 11:56:49;;;;;;;18.83;16.98;;;22.10;99.90;;;;;;4985754;28;20050;-59
2023/09/17 11:59:18;;;;;;;19.88;15.85;;;22.10;99.90;;;;;;4982524;28;20054;-59
2023/09/17 12:01:50;;;;;;;18.67;16.77;;;22.10;99.90;;;;;;5005313;28;20366;-58
2023/09/17 12:04:16;;;;;;;18.60;16.63;;;22.20;99.90;;;;;;4993441;28;20038;-58
2023/09/17 12:06:45;;;;;;;17.25;15.55;;;22.20;99.90;;;;;;4986040;28;20687;-59
2023/09/17 12:09:21;;;;;;;18.15;16.35;;;22.30;99.90;;;;;;4985379;28;20042;-59
2023/09/17 12:11:48;;;;;;;17.92;16.05;;;22.40;99.90;;;;;;4984743;28;20388;-57
2023/09/17 12:14:15;;;;;;;17.65;15.57;;;22.40;99.90;;;;;;4993967;28;20117;-61
2023/09/17 12:16:41;;;;;;;18.55;16.50;;;22.40;99.90;;;;;;4986348;28;20057;-59
2023/09/17 12:19:07;;;;;;;16.80;15.13;;;22.50;99.90;;;;;;5000940;28;20448;-55
2023/09/17 12:21:39;;;;;;;17.45;15.55;;;22.50;99.90;;;;;;5001811;28;20053;-55
2023/09/17 12:24:08;;;;;;;15.73;14.23;;;22.60;99.90;;;;;;5004183;28;20173;-55
2023/09/17 12:26:54;;;;;;;16.85;15.05;;;22.60;99.90;;;;;;5004192;28;20050;-55